Flight Track Log - Related Links

Times and Time Zones

All times are in EDT time to prevent confusion due to time zone crossing. See the DAL5889 flight status page for this flight to view local times or setup timezone preferences in your user account.

Time Position Orientation Groundspeed Altitude Reporting Facility
EDT Latitude Longitude Course Direction KTS MPH feet Rate Location/Type
Wed 04:16:33 PM 42.3500 -71.0167 270° West 140 161 800  Level KA90
Wed 04:17:16 PM 42.3333 -71.0000 144° Southeast 180 207 2,100 2,000 Climbing KA90
Wed 04:18:21 PM 42.3167 -70.9000 103° East 279 321 4,400 2,250 Climbing KA90
Wed 04:19:00 PM 42.2929 -70.7274 228° Southwest  Level FlightAware Approximate
Wed 04:19:08 PM 42.3306 -70.8281 75° East 294 338 6,300  Level Boston Center
Wed 04:20:00 PM 42.2287 -70.8274 240° Southwest  Level FlightAware Approximate
Wed 04:20:08 PM 42.2978 -70.7306 114° Southeast 322 371 9,200  Level Boston Center
Wed 04:21:00 PM 42.1833 -70.9435 270° West  Level FlightAware Approximate
Wed 04:21:08 PM 42.2167 -70.7328 181° South 250 288 11,200  Level Boston Center
Wed 04:22:08 PM 42.1744 -70.8319 240° Southwest 208 239 13,400 2,250 Climbing Boston Center
Wed 04:23:08 PM 42.1592 -70.9500 260° West 257 296 15,700 1,300 Climbing Boston Center
Wed 04:24:08 PM 42.1503 -71.0567 264° West 299 344 16,000 150 Climbing Boston Center
Wed 04:25:08 PM 42.1408 -71.1494 262° West 318 366 16,000  Level Boston Center
Wed 04:26:08 PM 42.1217 -71.2953 260° West 318 366 16,000  Level Boston Center
Wed 04:27:08 PM 42.1061 -71.4214 261° West 318 366 16,000  Level Boston Center
Wed 04:28:08 PM 42.0925 -71.5308 261° West 324 373 16,000  Level Boston Center
Wed 04:29:08 PM 42.0767 -71.6486 260° West 324 373 16,000  Level Boston Center
Wed 04:30:08 PM 42.0608 -71.7803 261° West 324 373 16,000  Level Boston Center
Wed 04:31:08 PM 42.0469 -71.8867 260° West 329 379 16,000  Level Boston Center
Wed 04:32:08 PM 42.0267 -72.0236 259° West 336 387 16,000  Level Boston Center
Wed 04:33:08 PM 42.0125 -72.1439 261° West 336 387 16,000  Level Boston Center
Wed 04:34:08 PM 41.9958 -72.2642 259° West 336 387 16,000  Level Boston Center
Wed 04:35:08 PM 41.9814 -72.3869 261° West 336 387 16,000  Level Boston Center
Wed 04:36:08 PM 41.9647 -72.5072 259° West 336 387 16,000  Level Boston Center
Wed 04:37:08 PM 41.9500 -72.6272 261° West 328 377 16,000  Level Boston Center
Wed 04:38:08 PM 41.9247 -72.7358 253° West 335 386 16,000 -200 Level Boston Center
Wed 04:39:08 PM 41.8786 -72.8444 240° Southwest 335 386 15,600 -700 Descending Boston Center
Wed 04:40:08 PM 41.8344 -72.9444 239° Southwest 328 377 14,600 -800 Descending Boston Center
Wed 04:41:08 PM 41.7922 -73.0497 242° Southwest 310 357 14,000 -300 Descending Boston Center
Wed 04:42:08 PM 41.7542 -73.1386 240° Southwest 304 350 14,000  Level Boston Center
Wed 04:43:08 PM 41.7203 -73.2244 242° Southwest 304 350 14,000 -100 Level Boston Center
Wed 04:44:08 PM 41.6819 -73.3461 247° West 304 350 13,800 -650 Descending Boston Center
Wed 04:45:08 PM 41.6603 -73.4544 255° West 299 344 12,700 -1,000 Descending Boston Center
Wed 04:46:08 PM 41.6425 -73.5594 257° West 299 344 11,800 -957 Descending Boston Center
Wed 04:47:51 PM 41.6000 -73.7333 252° West 287 330 10,100 -994 Descending New York TRACON
Wed 04:48:51 PM 41.5833 -73.8333 257° West 282 325 9,100 -500 Descending New York TRACON
Wed 04:49:51 PM 41.5667 -73.9333 257° West 283 326 9,100  Level New York TRACON
Wed 04:50:51 PM 41.5000 -73.9167 169° South 292 336 9,100 -50 Level New York TRACON
Wed 04:51:51 PM 41.4167 -73.8667 156° South 288 331 9,000 -300 Descending New York TRACON
Wed 04:52:51 PM 41.3667 -73.8167 143° Southeast 251 289 8,500 -450 Descending New York TRACON
Wed 04:53:51 PM 41.3000 -73.7667 151° Southeast 240 276 8,100 -200 Descending New York TRACON
Wed 04:54:51 PM 41.2500 -73.7167 143° Southeast 246 283 8,100 -300 Level New York TRACON
Wed 04:55:51 PM 41.2000 -73.6667 143° Southeast 209 241 7,500 -950 Descending New York TRACON
Wed 04:56:51 PM 41.1500 -73.6333 153° Southeast 198 228 6,200 -1,300 Descending New York TRACON
Wed 04:57:51 PM 41.1000 -73.6167 166° South 190 219 4,900 -1,050 Descending New York TRACON
Wed 04:58:51 PM 41.0500 -73.6500 207° Southwest 174 200 4,100 -400 Descending New York TRACON
Wed 04:59:51 PM 41.0167 -73.6833 217° Southwest 176 203 4,100  Level New York TRACON
Wed 05:00:51 PM 40.9833 -73.7167 217° Southwest 177 204 4,100 -350 Level New York TRACON
Wed 05:01:51 PM 40.9333 -73.7500 207° Southwest 178 205 3,400 -800 Descending New York TRACON
Wed 05:02:51 PM 40.9000 -73.7833 217° Southwest 177 204 2,500 -900 Descending New York TRACON

Login

Don't have an account? Register now (free) for customized features, flight alerts, and more!